Time;durP1;ratioP1;P1;durP2;ratioP2;P2;SDS_P1;SDS_P2;PMS_P1;PMS_P2;Temp;Humidity;BMP_temperature;BMP_pressure;BME280_temperature;BME280_humidity;BME280_pressure;Samples;Min_cycle;Max_cycle;Signal;HPM_P1;HPM_P2
2022/08/31 00:04:25;;;;;;;14.07;5.88;;;;;;;18.33;100.00;96858.44;4992952;28;20084;-75
2022/08/31 00:06:50;;;;;;;12.23;5.55;;;;;;;18.25;100.00;96845.53;4974609;28;20463;-74
2022/08/31 00:09:16;;;;;;;22.98;7.30;;;;;;;18.32;100.00;96854.13;4974399;28;20042;-74
2022/08/31 00:11:41;;;;;;;12.63;5.57;;;;;;;18.29;100.00;96860.94;4975801;28;20200;-74
2022/08/31 00:14:08;;;;;;;13.32;5.97;;;;;;;18.25;100.00;96850.94;4977591;28;20393;-73
2022/08/31 00:16:37;;;;;;;18.70;5.97;;;;;;;18.31;100.00;96850.59;4989744;28;20507;-73
2022/08/31 00:19:03;;;;;;;14.40;5.80;;;;;;;18.23;100.00;96847.72;4975155;28;20052;-74
2022/08/31 00:21:28;;;;;;;11.30;6.00;;;;;;;18.24;100.00;96844.72;4959363;28;20046;-74
2022/08/31 00:23:55;;;;;;;14.38;6.22;;;;;;;18.23;100.00;96847.72;4975467;28;20452;-74
2022/08/31 00:26:22;;;;;;;13.02;5.50;;;;;;;18.23;100.00;96843.13;4974383;28;20367;-74
2022/08/31 00:28:47;;;;;;;20.48;6.93;;;;;;;18.14;100.00;96849.44;4973421;28;20451;-73
2022/08/31 00:31:13;;;;;;;10.45;5.70;;;;;;;18.21;100.00;96844.47;4977096;28;20042;-74
2022/08/31 00:33:39;;;;;;;11.57;6.00;;;;;;;18.21;100.00;96845.31;4959326;28;20050;-73
2022/08/31 00:36:08;;;;;;;11.52;5.47;;;;;;;18.09;100.00;96847.59;4975403;28;20187;-73
2022/08/31 00:38:34;;;;;;;13.32;5.82;;;;;;;18.07;100.00;96839.75;4973882;28;20045;-75
2022/08/31 00:40:59;;;;;;;12.10;6.00;;;;;;;18.07;100.00;96839.75;4976850;28;20038;-73
2022/08/31 00:43:42;;;;;;;14.55;5.95;;;;;;;18.12;100.00;96840.78;4975704;28;20531;-74
2022/08/31 00:46:10;;;;;;;12.60;5.93;;;;;;;18.05;100.00;96849.25;4990170;28;20037;-73
2022/08/31 00:48:41;;;;;;;13.93;5.65;;;;;;;18.09;100.00;96842.97;4974586;28;20124;-74
2022/08/31 00:51:07;;;;;;;14.40;5.97;;;;;;;18.05;100.00;96841.97;4974192;28;20057;-74
2022/08/31 00:53:33;;;;;;;13.75;6.80;;;;;;;18.03;100.00;96837.91;4973882;28;20042;-74
2022/08/31 00:55:58;;;;;;;13.23;6.22;;;;;;;17.93;100.00;96840.72;4976352;28;20045;-73
2022/08/31 00:58:25;;;;;;;12.18;5.95;;;;;;;17.97;100.00;96839.03;4974332;28;20034;-73
2022/08/31 01:00:50;;;;;;;12.02;5.43;;;;;;;18.04;100.00;96836.81;4991402;28;20421;-74
2022/08/31 01:03:21;;;;;;;12.68;5.50;;;;;;;18.08;100.00;96835.16;4975614;28;20034;-74
2022/08/31 01:05:48;;;;;;;;;;;;;;;18.06;100.00;96831.94;4974743;28;20034;-75
2022/08/31 01:08:13;;;;;;;12.90;5.95;;;;;;;18.12;100.00;96827.25;4988732;28;19995;-74
2022/08/31 01:10:42;;;;;;;12.93;5.70;;;;;;;18.20;100.00;96837.44;4976230;28;20042;-74
2022/08/31 01:13:11;;;;;;;10.85;5.90;;;;;;;18.18;100.00;96832.31;4971906;28;20459;-73
2022/08/31 01:15:38;;;;;;;9.27;5.45;;;;;;;18.07;100.00;96818.09;4975332;28;20517;-74
2022/08/31 01:18:07;;;;;;;14.93;6.30;;;;;;;18.10;100.00;96822.94;4990132;28;20386;-74
2022/08/31 01:20:57;;;;;;;19.00;6.95;;;;;;;18.12;100.00;96835.38;4974984;28;20057;-73
2022/08/31 01:23:23;;;;;;;12.15;5.35;;;;;;;18.04;100.00;96834.91;4973398;28;20046;-74
2022/08/31 01:25:52;;;;;;;16.00;6.35;;;;;;;18.13;100.00;96847.81;4973462;28;20129;-73
2022/08/31 01:28:18;;;;;;;15.68;6.50;;;;;;;18.06;100.00;96840.06;4974084;28;20042;-74
2022/08/31 01:30:57;;;;;;;21.55;6.65;;;;;;;18.01;100.00;96846.31;4975025;28;20048;-74
2022/08/31 01:33:22;;;;;;;11.57;6.72;;;;;;;18.05;100.00;96858.19;4972635;28;20359;-74
2022/08/31 01:35:48;;;;;;;15.88;6.22;;;;;;;18.08;100.00;96851.41;4957876;28;20161;-74
2022/08/31 01:38:14;;;;;;;13.20;6.00;;;;;;;18.01;100.00;96851.72;4973575;28;20038;-74
2022/08/31 01:40:53;;;;;;;12.82;5.82;;;;;;;18.01;100.00;96857.16;4973160;28;20049;-74
2022/08/31 01:43:19;;;;;;;10.48;6.13;;;;;;;18.04;100.00;96858.47;4973022;28;20061;-73
2022/08/31 01:45:44;;;;;;;11.63;5.90;;;;;;;18.13;100.00;96880.31;4975075;28;20034;-73
2022/08/31 01:48:10;;;;;;;15.15;7.13;;;;;;;18.06;100.00;96884.19;4973147;28;20401;-74
2022/08/31 01:50:36;;;;;;;12.75;6.53;;;;;;;18.18;100.00;96900.03;4974075;28;20058;-74
2022/08/31 01:53:02;;;;;;;17.17;6.05;;;;;;;18.21;100.00;96904.91;4990401;28;20402;-74
2022/08/31 01:55:29;;;;;;;13.52;5.93;;;;;;;18.25;100.00;96918.66;4988901;28;20041;-74
2022/08/31 01:57:57;;;;;;;13.45;6.28;;;;;;;18.23;100.00;96923.56;4957796;28;20030;-73
2022/08/31 02:00:57;;;;;;;13.68;6.07;;;;;;;18.24;100.00;96925.16;4973191;28;20050;-73
2022/08/31 02:03:22;;;;;;;15.80;6.18;;;;;;;18.28;100.00;96924.28;4973368;28;20066;-74
2022/08/31 02:05:48;;;;;;;11.85;6.10;;;;;;;18.29;100.00;96917.00;4975058;28;20038;-74
2022/08/31 02:08:13;;;;;;;19.05;6.40;;;;;;;18.24;100.00;96931.41;4974235;28;20533;-73
2022/08/31 02:10:39;;;;;;;10.82;6.53;;;;;;;18.26;100.00;96939.22;4989325;28;20052;-73
2022/08/31 02:13:05;;;;;;;15.40;6.13;;;;;;;18.26;100.00;96945.44;4989066;28;20049;-74
2022/08/31 02:15:37;;;;;;;20.42;6.95;;;;;;;18.29;100.00;96949.50;4957917;28;20045;-74
2022/08/31 02:18:02;;;;;;;11.15;6.53;;;;;;;18.20;100.00;96943.06;4990270;28;20350;-74
2022/08/31 02:20:28;;;;;;;14.35;6.88;;;;;;;17.99;100.00;96942.47;4971751;28;20477;-74
2022/08/31 02:22:57;;;;;;;20.88;6.57;;;;;;;17.86;100.00;96957.44;4972365;28;20500;-73
2022/08/31 02:25:23;;;;;;;13.48;7.05;;;;;;;17.92;100.00;96955.53;4975694;28;20363;-74
2022/08/31 02:27:48;;;;;;;14.68;7.60;;;;;;;17.89;100.00;96961.47;4973478;28;20069;-73
2022/08/31 02:30:17;;;;;;;15.25;6.88;;;;;;;17.62;100.00;96961.94;4988025;28;20434;-74
2022/08/31 02:32:43;;;;;;;19.85;7.60;;;;;;;17.50;100.00;96964.97;4973011;28;20614;-74
2022/08/31 02:35:09;;;;;;;13.65;7.70;;;;;;;17.54;100.00;96966.84;4971612;28;20061;-74
2022/08/31 02:37:35;;;;;;;19.60;8.70;;;;;;;17.57;100.00;96970.88;4988098;28;20422;-73
2022/08/31 02:40:01;;;;;;;19.13;7.65;;;;;;;17.62;100.00;96975.47;4989724;28;20038;-74
2022/08/31 02:42:27;;;;;;;22.70;7.53;;;;;;;17.61;100.00;96977.34;4969923;28;20049;-74
2022/08/31 02:44:53;;;;;;;14.70;7.80;;;;;;;17.10;100.00;96972.22;4974539;28;20082;-74
2022/08/31 02:47:19;;;;;;;14.38;8.57;;;;;;;16.91;100.00;96969.34;4988776;28;20644;-73
2022/08/31 02:49:52;;;;;;;15.20;7.78;;;;;;;16.81;100.00;96980.19;4971348;28;20481;-74
2022/08/31 02:52:18;;;;;;;16.85;8.95;;;;;;;16.88;100.00;96983.38;4986140;28;20042;-73
2022/08/31 02:54:43;;;;;;;18.92;8.80;;;;;;;16.68;100.00;96986.94;4989975;28;20069;-73
2022/08/31 02:57:10;;;;;;;24.63;16.83;;;;;;;16.80;100.00;96993.97;4973073;28;20046;-73
2022/08/31 02:59:36;;;;;;;20.38;8.63;;;;;;;16.94;100.00;96982.28;4988671;28;20299;-74
2022/08/31 03:02:02;;;;;;;22.23;9.25;;;;;;;17.03;100.00;96982.53;4967489;28;20046;-74
2022/08/31 03:04:29;;;;;;;14.65;8.43;;;;;;;17.12;100.00;96980.88;4970468;28;20034;-74
2022/08/31 03:06:54;;;;;;;15.98;9.02;;;;;;;17.14;100.00;96984.13;4968492;28;20047;-73
2022/08/31 03:09:20;;;;;;;15.13;8.57;;;;;;;17.09;100.00;96986.81;4968609;28;20612;-72
2022/08/31 03:11:46;;;;;;;15.50;8.30;;;;;;;16.92;100.00;96975.56;4967324;28;20078;-74
2022/08/31 03:14:12;;;;;;;14.27;8.10;;;;;;;17.02;100.00;96970.09;4970198;28;20031;-74
2022/08/31 03:16:39;;;;;;;16.08;8.50;;;;;;;17.11;100.00;96979.25;4952345;28;20521;-75
2022/08/31 03:19:06;;;;;;;15.20;9.13;;;;;;;17.16;100.00;96976.53;4968051;28;20093;-74
2022/08/31 03:21:31;;;;;;;16.33;8.25;;;;;;;16.94;100.00;96982.28;4968368;28;20281;-74
2022/08/31 03:23:57;;;;;;;16.77;9.07;;;;;;;17.02;100.00;96978.22;4954107;28;20146;-73
2022/08/31 03:26:23;;;;;;;16.83;8.68;;;;;;;17.05;100.00;96972.25;4969302;28;20043;-74
2022/08/31 03:28:48;;;;;;;21.85;8.60;;;;;;;17.06;100.00;96973.88;4970384;28;20050;-75
2022/08/31 03:31:35;;;;;;;15.88;8.40;;;;;;;17.07;100.00;96974.69;4959658;28;20062;-74
2022/08/31 03:34:01;;;;;;;18.42;9.10;;;;;;;17.07;100.00;96972.78;4957334;28;20533;-74
2022/08/31 03:36:27;;;;;;;16.73;8.55;;;;;;;17.01;100.00;96965.78;4957467;28;20490;-74
2022/08/31 03:38:53;;;;;;;17.55;9.30;;;;;;;16.99;100.00;96965.25;4958023;28;20089;-74
2022/08/31 03:41:23;;;;;;;16.95;9.70;;;;;;;16.87;100.00;96973.66;4972783;28;20042;-74
2022/08/31 03:43:49;;;;;;;15.82;9.05;;;;;;;16.80;100.00;96967.75;4957370;28;20163;-74
2022/08/31 03:46:16;;;;;;;15.40;8.32;;;;;;;16.57;100.00;96968.31;4972055;28;20047;-73
2022/08/31 03:48:46;;;;;;;13.82;8.90;;;;;;;16.60;100.00;96968.59;4972659;28;20051;-74
2022/08/31 03:51:14;;;;;;;17.05;8.68;;;;;;;16.47;100.00;96968.34;4972054;28;20057;-75
2022/08/31 03:53:40;;;;;;;14.98;8.77;;;;;;;16.56;100.00;96959.41;4941960;28;21029;-73
2022/08/31 03:56:07;;;;;;;14.88;9.18;;;;;;;16.58;100.00;96954.56;4959280;28;20303;-75
2022/08/31 03:58:37;;;;;;;16.65;9.48;;;;;;;16.52;100.00;96955.66;4962533;28;20035;-74
2022/08/31 04:01:04;;;;;;;16.42;8.68;;;;;;;16.44;100.00;96965.13;4978572;28;20038;-75
2022/08/31 04:03:49;;;;;;;16.17;8.68;;;;;;;16.31;100.00;96962.97;4982654;28;20045;-74
2022/08/31 04:06:33;;;;;;;11.77;7.72;;;;;;;16.11;100.00;96963.03;4994630;28;20538;-74
2022/08/31 04:09:18;;;;;;;16.67;8.48;;;;;;;16.17;100.00;96954.63;4994271;28;20073;-74
2022/08/31 04:12:10;;;;;;;23.83;8.55;;;;;;;15.91;100.00;96960.31;4980158;28;20501;-74
2022/08/31 04:14:41;;;;;;;19.30;7.97;;;;;;;15.84;100.00;96964.09;4980611;28;20163;-74
2022/08/31 04:17:26;;;;;;;17.10;9.07;;;;;;;15.78;100.00;96950.88;4978418;28;20038;-73
2022/08/31 04:20:02;;;;;;;16.25;9.20;;;;;;;15.80;100.00;96957.63;4979900;28;20560;-75
2022/08/31 04:22:40;;;;;;;15.45;9.50;;;;;;;15.80;100.00;96960.31;4965764;28;20038;-74
2022/08/31 04:25:36;;;;;;;17.58;10.02;;;;;;;15.92;100.00;96951.94;4978093;28;20058;-75
2022/08/31 04:28:02;;;;;;;17.40;10.27;;;;;;;15.85;100.00;96949.50;4980271;28;20083;-74
2022/08/31 04:30:28;;;;;;;18.15;10.65;;;;;;;15.74;100.00;96960.59;4978631;28;20037;-76
2022/08/31 04:32:56;;;;;;;18.35;10.07;;;;;;;15.60;100.00;96952.19;4977705;28;20042;-74
2022/08/31 04:35:26;;;;;;;16.42;10.00;;;;;;;15.63;100.00;96940.06;4976878;28;20039;-75
2022/08/31 04:37:53;;;;;;;18.55;10.43;;;;;;;15.63;100.00;96946.25;4994550;28;20288;-75
2022/08/31 04:40:19;;;;;;;21.33;10.50;;;;;;;15.60;100.00;96946.78;4976842;28;20042;-74
2022/08/31 04:42:46;;;;;;;15.52;9.40;;;;;;;15.71;100.00;96947.63;4961781;28;20046;-74
2022/08/31 04:45:13;;;;;;;18.10;10.25;;;;;;;15.65;100.00;96946.84;4993802;28;20039;-75
2022/08/31 04:47:40;;;;;;;17.05;10.30;;;;;;;15.42;100.00;96944.63;4979309;28;20094;-75
2022/08/31 04:50:08;;;;;;;16.52;10.35;;;;;;;15.39;100.00;96951.34;4961226;28;20154;-74
2022/08/31 04:52:35;;;;;;;18.05;11.07;;;;;;;15.41;100.00;96945.66;4975567;28;20043;-75
2022/08/31 04:55:02;;;;;;;20.65;10.40;;;;;;;15.26;100.00;96941.88;4994551;28;20445;-74
2022/08/31 04:57:28;;;;;;;18.65;10.88;;;;;;;15.35;100.00;96936.78;4976464;28;20038;-76
2022/08/31 04:59:53;;;;;;;17.90;10.43;;;;;;;15.42;100.00;96931.13;4994719;28;20080;-74
2022/08/31 05:02:44;;;;;;;16.88;10.10;;;;;;;15.37;100.00;96939.19;4989529;28;20485;-75
2022/08/31 05:05:14;;;;;;;19.40;10.20;;;;;;;15.36;100.00;96945.69;4976629;28;20042;-75
2022/08/31 05:07:40;;;;;;;23.42;10.35;;;;;;;15.33;100.00;96945.13;4977039;28;20081;-74
2022/08/31 05:10:06;;;;;;;19.20;10.27;;;;;;;15.29;100.00;96948.63;4976356;28;20042;-75
2022/08/31 05:12:32;;;;;;;23.27;10.55;;;;;;;15.37;100.00;96947.28;4961014;28;20485;-74
2022/08/31 05:14:58;;;;;;;17.00;9.23;;;;;;;15.40;100.00;96949.44;4977480;28;20034;-74
2022/08/31 05:17:26;;;;;;;20.25;9.50;;;;;;;15.49;100.00;96942.47;4991815;28;20035;-75
2022/08/31 05:19:52;;;;;;;17.88;9.93;;;;;;;15.46;100.00;96941.09;4975536;28;20504;-74
2022/08/31 05:22:17;;;;;;;16.88;9.75;;;;;;;15.54;100.00;96945.16;4976017;28;20401;-74
2022/08/31 05:24:46;;;;;;;16.08;9.57;;;;;;;15.63;100.00;96943.56;4976378;28;20038;-76
2022/08/31 05:27:12;;;;;;;18.15;10.32;;;;;;;15.58;100.00;96952.44;4958014;28;20077;-76
2022/08/31 05:29:39;;;;;;;17.63;10.60;;;;;;;15.57;100.00;96950.03;4978202;28;20045;-75
2022/08/31 05:32:33;;;;;;;20.25;10.50;;;;;;;15.63;100.00;96948.97;4974298;28;20038;-75
2022/08/31 05:35:00;;;;;;;17.63;10.25;;;;;;;15.75;100.00;96960.31;4973350;28;20061;-75
2022/08/31 05:37:25;;;;;;;20.17;10.90;;;;;;;15.80;100.00;96954.13;4972354;28;20494;-75
2022/08/31 05:39:52;;;;;;;20.55;10.50;;;;;;;15.83;100.00;96959.78;4973584;28;20375;-75
2022/08/31 05:42:19;;;;;;;17.73;10.65;;;;;;;15.87;100.00;96954.63;4988976;28;20045;-76
2022/08/31 05:44:46;;;;;;;20.48;10.45;;;;;;;15.97;100.00;96951.16;4972681;28;20049;-75
2022/08/31 05:47:12;;;;;;;19.52;11.18;;;;;;;16.04;100.00;96957.09;4989823;28;20046;-75
2022/08/31 05:49:42;;;;;;;27.38;10.52;;;;;;;16.04;100.00;96951.69;4989982;28;20053;-76
2022/08/31 05:52:12;;;;;;;42.75;11.95;;;;;;;15.90;100.00;96950.59;4987941;28;20670;-75
2022/08/31 05:54:39;;;;;;;22.52;10.50;;;;;;;15.97;100.00;96951.97;4974182;28;20466;-76
2022/08/31 05:57:05;;;;;;;18.73;11.13;;;;;;;15.98;100.00;96950.06;4972273;28;20097;-75
2022/08/31 05:59:32;;;;;;;18.42;10.50;;;;;;;15.82;100.00;96946.56;4989573;28;20112;-75
2022/08/31 06:02:01;;;;;;;16.67;11.02;;;;;;;15.70;100.00;96954.91;4971431;28;20043;-76
2022/08/31 06:04:31;;;;;;;21.95;10.85;;;;;;;15.86;100.00;96953.84;4957216;28;20085;-76
2022/08/31 06:06:57;;;;;;;20.20;10.48;;;;;;;15.85;100.00;96946.81;4988683;28;20523;-75
2022/08/31 06:09:27;;;;;;;23.33;11.02;;;;;;;15.70;100.00;96948.69;4956643;28;20060;-75
2022/08/31 06:11:52;;;;;;;20.60;10.70;;;;;;;15.60;100.00;96950.28;4971593;28;20034;-75
2022/08/31 06:14:21;;;;;;;27.05;11.25;;;;;;;15.60;100.00;96952.19;4972650;28;20050;-76
2022/08/31 06:16:49;;;;;;;22.58;11.20;;;;;;;15.68;100.00;96951.69;4972721;28;20038;-76
2022/08/31 06:19:18;;;;;;;21.63;10.95;;;;;;;15.73;100.00;96954.38;4989588;28;20117;-75
2022/08/31 06:21:48;;;;;;;16.42;9.95;;;;;;;15.76;100.00;96951.13;4973754;28;20045;-76
2022/08/31 06:24:14;;;;;;;19.58;10.48;;;;;;;15.64;100.00;96952.47;4973759;28;20093;-76
2022/08/31 06:26:39;;;;;;;19.50;10.18;;;;;;;15.68;100.00;96959.78;4974590;28;20042;-76
2022/08/31 06:29:14;;;;;;;21.23;10.05;;;;;;;15.67;100.00;96957.34;4974434;28;20046;-76
2022/08/31 06:31:46;;;;;;;22.65;11.02;;;;;;;15.61;100.00;96961.91;4987663;28;20046;-76
2022/08/31 06:34:15;;;;;;;20.55;9.95;;;;;;;15.49;100.00;96953.25;4973276;28;20046;-75
2022/08/31 06:37:02;;;;;;;19.17;9.48;;;;;;;15.62;100.00;96954.63;4978653;28;20712;-75
2022/08/31 06:39:54;;;;;;;18.85;10.07;;;;;;;15.68;100.00;96962.47;4972228;28;20058;-75
2022/08/31 06:42:35;;;;;;;22.05;9.48;;;;;;;15.78;100.00;96951.66;4974035;28;20087;-75
2022/08/31 06:45:02;;;;;;;17.50;8.88;;;;;;;15.51;100.00;96967.28;4973363;28;20127;-75
2022/08/31 06:47:46;;;;;;;14.73;9.88;;;;;;;15.63;100.00;96965.16;4989949;28;20108;-75
2022/08/31 06:50:12;;;;;;;17.48;9.55;;;;;;;15.62;100.00;96963.53;4989262;28;20178;-75
2022/08/31 06:52:39;;;;;;;16.55;9.98;;;;;;;15.65;100.00;96965.72;4989673;28;20066;-75
2022/08/31 06:55:17;;;;;;;15.60;8.70;;;;;;;15.71;100.00;96970.00;4990280;28;20046;-77
2022/08/31 06:58:02;;;;;;;21.20;10.02;;;;;;;15.83;100.00;96980.56;4973177;28;20081;-76
2022/08/31 07:00:39;;;;;;;17.00;9.40;;;;;;;15.79;100.00;96985.66;4974530;28;20039;-76
2022/08/31 07:03:33;;;;;;;20.75;9.27;;;;;;;15.88;100.00;96983.28;4975659;28;20073;-76
2022/08/31 07:06:10;;;;;;;17.17;10.57;;;;;;;15.99;100.00;96982.19;4972842;28;20046;-76
2022/08/31 07:08:38;;;;;;;19.00;10.27;;;;;;;16.08;100.00;96987.84;4974195;28;20054;-76
2022/08/31 07:11:09;;;;;;;17.95;10.65;;;;;;;16.18;100.00;96993.22;4972377;28;20121;-77
2022/08/31 07:13:34;;;;;;;18.67;10.60;;;;;;;16.15;100.00;96989.19;4957816;28;20565;-75
2022/08/31 07:16:07;;;;;;;18.88;10.10;;;;;;;16.12;100.00;96988.94;4988727;28;20125;-76
2022/08/31 07:18:33;;;;;;;19.65;10.65;;;;;;;16.13;100.00;96990.56;4988647;28;20428;-75
2022/08/31 07:21:06;;;;;;;18.67;10.95;;;;;;;16.09;100.00;96989.47;4972225;28;20030;-75
2022/08/31 07:23:32;;;;;;;17.98;9.75;;;;;;;16.17;100.00;96981.63;4989830;28;20376;-75
2022/08/31 07:26:14;;;;;;;36.92;12.60;;;;;;;16.33;100.00;96987.00;4972988;28;20466;-75
2022/08/31 07:28:43;;;;;;;17.58;9.20;;;;;;;16.43;100.00;96987.81;4989803;28;20073;-75
2022/08/31 07:31:16;;;;;;;22.55;10.57;;;;;;;16.68;100.00;96981.53;4974281;28;20042;-75
2022/08/31 07:33:42;;;;;;;19.20;9.50;;;;;;;16.83;100.00;96982.63;4976717;28;20115;-75
2022/08/31 07:36:12;;;;;;;24.55;10.90;;;;;;;17.03;100.00;96981.72;4976359;28;20042;-76
2022/08/31 07:42:10;;;;;;;16.60;8.95;;;;;;;17.37;100.00;96985.34;4967112;28;20076;-75
2022/08/31 07:44:42;;;;;;;18.15;8.40;;;;;;;17.37;100.00;96979.94;4992682;28;20050;-75
2022/08/31 07:47:12;;;;;;;14.40;8.32;;;;;;;17.21;100.00;96984.63;4973126;28;20374;-75
2022/08/31 07:49:43;;;;;;;20.27;9.70;;;;;;;17.39;100.00;96991.28;4976402;28;20100;-76
2022/08/31 07:52:27;;;;;;;22.60;9.85;;;;;;;17.26;100.00;96986.47;4976239;28;20384;-76
2022/08/31 07:55:21;;;;;;;21.05;9.30;;;;;;;17.42;100.00;96998.81;4967991;28;20057;-75
2022/08/31 07:58:11;;;;;;;18.40;9.52;;;;;;;17.49;100.00;96990.41;4976727;28;20066;-76
2022/08/31 08:00:38;;;;;;;17.27;9.07;;;;;;;17.85;100.00;96996.44;4959598;28;20252;-75
2022/08/31 08:03:06;;;;;;;15.00;8.32;;;;;;;18.18;100.00;96994.81;4974747;28;20386;-75
2022/08/31 08:05:40;;;;;;;15.48;8.77;;;;;;;18.09;100.00;97004.66;4976107;28;20038;-75
2022/08/31 08:08:25;;;;;;;19.25;9.25;;;;;;;18.33;100.00;96994.69;4974167;28;20046;-75
2022/08/31 08:11:16;;;;;;;21.58;8.18;;;;;;;18.33;100.00;97004.72;4962133;28;20081;-76
2022/08/31 08:13:53;;;;;;;20.08;8.63;;;;;;;18.67;100.00;97003.88;4977467;28;20042;-75
2022/08/31 08:16:24;;;;;;;20.58;8.13;;;;;;;18.85;100.00;97003.16;4940438;28;20545;-76
2022/08/31 08:19:06;;;;;;;18.50;7.90;;;;;;;18.92;100.00;97000.91;4972676;28;20044;-76
2022/08/31 08:21:31;;;;;;;18.50;7.95;;;;;;;18.99;100.00;97004.09;4992167;28;20236;-76
2022/08/31 08:23:58;;;;;;;17.55;8.77;;;;;;;19.07;100.00;97013.50;4978177;28;20050;-76
2022/08/31 08:26:53;;;;;;;14.40;8.43;;;;;;;19.16;100.00;97012.56;4962496;28;20117;-76
2022/08/31 08:29:30;;;;;;;21.25;8.60;;;;;;;19.15;100.00;97008.22;4989655;28;20046;-76
2022/08/31 08:31:56;;;;;;;16.85;9.00;;;;;;;19.17;100.00;97010.63;4990497;28;20061;-76
2022/08/31 08:34:23;;;;;;;14.88;8.32;;;;;;;19.28;100.00;97008.59;4989344;28;20571;-76
2022/08/31 08:36:50;;;;;;;15.88;8.50;;;;;;;19.19;100.00;97006.53;4978770;28;20073;-76
2022/08/31 08:39:18;;;;;;;23.38;8.45;;;;;;;19.14;100.00;97009.31;4994589;28;20030;-76
2022/08/31 08:42:07;;;;;;;18.45;7.68;;;;;;;19.43;100.00;97009.22;4964058;28;20050;-76
2022/08/31 08:44:35;;;;;;;14.70;7.95;;;;;;;19.36;100.00;97007.94;4976745;28;20090;-75
2022/08/31 08:47:07;;;;;;;13.45;7.28;;;;;;;19.48;100.00;97002.91;4976572;28;20088;-76
2022/08/31 08:49:45;;;;;;;20.50;7.80;;;;;;;19.40;100.00;97004.38;4991063;28;20121;-76
2022/08/31 08:52:29;;;;;;;14.52;7.13;;;;;;;19.45;100.00;97014.34;4978441;28;20535;-76
2022/08/31 08:55:00;;;;;;;17.60;7.70;;;;;;;19.53;100.00;97015.59;4997484;28;20133;-76
2022/08/31 08:57:30;;;;;;;15.48;7.45;;;;;;;19.66;100.00;97014.91;4959147;28;20569;-76
2022/08/31 09:00:04;;;;;;;11.55;7.10;;;;;;;19.81;100.00;97005.75;4977209;28;20038;-76
2022/08/31 09:02:38;;;;;;;14.00;7.82;;;;;;;19.75;100.00;97013.94;4990431;28;20073;-76
2022/08/31 09:05:34;;;;;;;13.50;7.18;;;;;;;19.75;100.00;97019.38;4975262;28;20287;-76
2022/08/31 09:08:40;;;;;;;13.68;6.65;;;;;;;19.89;100.00;97018.66;4975551;28;20054;-76
2022/08/31 09:11:09;;;;;;;14.05;6.65;;;;;;;20.15;100.00;97017.13;4973305;28;20053;-76
2022/08/31 09:13:45;;;;;;;19.70;7.57;;;;;;;20.50;100.00;97017.69;4973837;28;20464;-76
2022/08/31 09:16:24;;;;;;;11.00;6.13;;;;;;;20.67;100.00;97017.94;4946238;28;20066;-77
2022/08/31 09:18:58;;;;;;;14.50;6.00;;;;;;;20.62;100.00;97018.00;4978628;28;20042;-76
2022/08/31 09:21:29;;;;;;;16.48;6.43;;;;;;;20.77;100.00;97015.00;4973564;28;20239;-76
2022/08/31 09:24:04;;;;;;;16.35;6.95;;;;;;;20.75;100.00;97025.38;4959201;28;20374;-76
2022/08/31 09:27:25;;;;;;;13.07;6.30;;;;;;;20.86;100.00;97031.47;4986626;28;20046;-76
2022/08/31 09:29:59;;;;;;;17.60;6.22;;;;;;;20.90;100.00;97029.75;4973433;28;20049;-77
2022/08/31 09:32:34;;;;;;;13.90;6.57;;;;;;;21.28;100.00;97033.13;4970593;28;20042;-76
2022/08/31 09:35:05;;;;;;;13.63;6.80;;;;;;;21.29;100.00;97031.19;4976508;28;20054;-76
2022/08/31 09:37:45;;;;;;;14.73;7.13;;;;;;;21.13;100.00;97033.38;4976772;28;20404;-76
2022/08/31 09:40:38;;;;;;;12.63;6.50;;;;;;;20.70;100.00;97032.81;4991158;28;20299;-76
2022/08/31 09:43:27;;;;;;;13.10;6.90;;;;;;;20.34;100.00;97040.78;4970364;28;20046;-76
2022/08/31 09:46:19;;;;;;;15.90;6.10;;;;;;;20.13;100.00;97029.41;4974732;28;20125;-75
2022/08/31 09:48:54;;;;;;;12.00;7.05;;;;;;;20.80;100.00;97029.94;4975179;28;20521;-75
2022/08/31 09:51:37;;;;;;;11.98;6.70;;;;;;;21.35;100.00;97035.44;4971676;28;20038;-76
2022/08/31 09:57:01;;;;;;;12.23;7.10;;;;;;;21.79;100.00;97029.31;4975040;28;20282;-76
2022/08/31 09:59:42;;;;;;;13.93;6.40;;;;;;;22.06;100.00;97033.06;4974213;28;20062;-75
2022/08/31 10:02:08;;;;;;;11.90;6.55;;;;;;;22.23;100.00;97027.75;4980496;28;20070;-75
2022/08/31 10:04:45;;;;;;;13.77;7.15;;;;;;;22.96;99.71;97031.94;4975546;28;20096;-75
2022/08/31 10:07:56;;;;;;;16.30;6.70;;;;;;;23.48;94.21;97031.28;4973720;28;20148;-75
2022/08/31 10:10:26;;;;;;;17.73;7.07;;;;;;;23.58;94.18;97025.56;4971402;28;20046;-76
2022/08/31 10:12:56;;;;;;;15.55;6.47;;;;;;;23.89;94.11;97031.72;4975648;28;20656;-76
2022/08/31 10:15:40;;;;;;;11.88;6.75;;;;;;;23.65;89.53;97030.53;4974153;28;20905;-76
2022/08/31 10:18:45;;;;;;;14.48;7.00;;;;;;;23.83;91.16;97027.53;4975114;28;20552;-76
2022/08/31 10:21:20;;;;;;;15.35;7.43;;;;;;;23.97;91.40;97029.28;4973807;28;20137;-76
2022/08/31 10:24:19;;;;;;;18.58;6.70;;;;;;;24.50;88.62;97025.44;4973519;28;20486;-76
2022/08/31 10:26:48;;;;;;;16.00;6.60;;;;;;;23.88;90.57;97018.34;4972229;28;20283;-75
2022/08/31 10:29:25;;;;;;;13.87;7.13;;;;;;;24.64;87.21;97018.66;4283557;28;10000145;-77
2022/08/31 10:31:54;;;;;;;14.38;6.97;;;;;;;25.24;84.68;97009.44;4969843;28;20046;-77
2022/08/31 10:37:30;;;;;;;14.02;6.07;;;;;;;26.83;74.15;97018.53;4969085;28;20034;-76
2022/08/31 10:40:08;;;;;;;14.15;7.03;;;;;;;27.08;72.01;97019.41;4987140;28;20046;-77
2022/08/31 10:42:40;;;;;;;19.92;6.65;;;;;;;27.67;69.31;97012.66;4972788;28;20077;-76
2022/08/31 10:45:22;;;;;;;10.27;6.72;;;;;;;27.99;62.49;97013.63;4971431;28;20046;-76
2022/08/31 10:47:51;;;;;;;11.75;6.43;;;;;;;27.10;68.16;97016.31;4969500;28;20050;-75
2022/08/31 10:50:31;;;;;;;13.90;6.95;;;;;;;26.81;71.02;97017.28;4970206;28;20057;-76
2022/08/31 10:53:32;;;;;;;14.57;6.90;;;;;;;27.90;62.91;97016.50;4971615;28;20463;-76
2022/08/31 10:56:16;;;;;;;12.30;6.72;;;;;;;27.37;67.76;97018.38;4972228;28;20609;-76
2022/08/31 10:59:08;;;;;;;12.02;6.95;;;;;;;27.56;64.33;97022.50;4986920;28;20133;-76
2022/08/31 11:02:07;;;;;;;11.93;6.70;;;;;;;28.85;55.96;97014.88;4969992;28;20050;-76
2022/08/31 11:05:00;;;;;;;16.73;7.05;;;;;;;27.31;66.06;97021.69;4976264;28;20655;-76
2022/08/31 11:07:48;;;;;;;16.02;7.50;;;;;;;27.17;64.95;97022.06;4991085;28;20057;-76
2022/08/31 11:10:35;;;;;;;14.20;7.30;;;;;;;26.88;66.66;97023.00;4977890;28;20438;-76
2022/08/31 11:13:13;;;;;;;18.00;6.85;;;;;;;26.61;70.38;97021.66;4978714;28;20034;-75
2022/08/31 11:15:53;;;;;;;18.45;7.78;;;;;;;25.99;75.95;97012.38;4978869;28;20065;-75
2022/08/31 11:18:39;;;;;;;16.70;6.80;;;;;;;24.99;76.38;97022.09;4975520;28;20042;-76
2022/08/31 11:21:41;;;;;;;26.00;6.93;;;;;;;23.58;83.77;97029.09;4993586;28;20045;-76
2022/08/31 11:24:27;;;;;;;11.55;6.75;;;;;;;24.37;78.76;97032.72;4952815;28;20046;-76
2022/08/31 11:27:21;;;;;;;21.10;7.97;;;;;;;25.13;75.07;97023.81;4972527;28;20464;-75
2022/08/31 11:30:00;;;;;;;11.13;6.63;;;;;;;27.24;65.84;97022.28;4978680;28;20050;-76
2022/08/31 11:32:56;;;;;;;14.60;6.85;;;;;;;26.42;67.89;97018.66;4977186;28;20050;-76
2022/08/31 11:36:04;;;;;;;12.52;6.53;;;;;;;25.60;70.92;97027.28;4977545;28;20058;-77
2022/08/31 11:38:51;;;;;;;19.02;7.28;;;;;;;25.62;71.57;97018.75;4976973;28;20046;-75
2022/08/31 11:41:46;;;;;;;15.43;6.88;;;;;;;25.89;70.90;97021.00;4976406;28;20650;-77
2022/08/31 11:44:30;;;;;;;15.55;6.70;;;;;;;25.15;75.66;97029.78;4978016;28;20674;-75
2022/08/31 11:47:13;;;;;;;16.60;6.28;;;;;;;25.40;73.68;97017.09;4975543;28;20042;-76
2022/08/31 11:49:54;;;;;;;20.55;7.40;;;;;;;25.76;71.95;97025.63;4977297;28;20106;-76
2022/08/31 11:52:20;;;;;;;16.95;7.35;;;;;;;25.87;66.66;97009.56;4976913;28;20393;-76
2022/08/31 11:54:47;;;;;;;18.15;7.20;;;;;;;25.41;71.22;97015.97;4976770;28;20521;-75
2022/08/31 11:57:19;;;;;;;17.90;7.35;;;;;;;25.56;70.67;97009.91;4976704;28;20402;-77